• Join FlightAware (Why Join?)
  • Login
  • US Flag 
06:45PM EDT


 

Airport Tracker/Info


-or-


 

Live Flight TrackerFlight Track Log ✈ ASH3770 ✈ 05-May-2013 ✈ KIAD - KPIT

Flight Track Log - Related Links

Times and Time Zones

All times are in EDT time to prevent confusion due to time zone crossing. See the ASH3770 flight status page for this flight to view local times or setup timezone preferences in your user account.

Time Position Orientation Groundspeed Altitude Reporting Facility
EDT Latitude Longitude Course Direction KTS MPH feet Rate Location/Type
05:05PM 38.9333 -77.5000 290° West 214 246 2,500  Level Potomac TRACON
05:07PM 39.0569 -77.6150 324° Northwest 276 318 8,500 2,640 Climbing Washington Center
05:08PM 39.1417 -77.6603 337° Northwest 290 334 11,400 2,580 Climbing Washington Center
05:09PM 39.4169 -77.5833 North  Level FlightAware Approximate
05:09PM 39.2283 -77.7031 339° North 308 354 13,600  Level Washington Center
05:10PM 39.4737 -77.6661 290° West  Level FlightAware Approximate
05:10PM 39.3192 -77.7486 339° North 332 382 16,100  Level Washington Center
05:11PM 39.4164 -77.7969 339° North 355 409 17,400 1,020 Climbing Washington Center
05:13PM 39.5833 -77.9972 317° Northwest 406 467 19,300 840 Climbing Cleveland Center
05:14PM 39.6283 -78.1492 291° West 423 487 20,000 300 Climbing Cleveland Center
05:15PM 39.6711 -78.3014 290° West 443 510 20,000  Level Cleveland Center
05:16PM 39.7156 -78.4483 292° West 449 517 20,000  Level Cleveland Center
05:17PM 39.7622 -78.6008 292° West 443 510 20,000  Level Cleveland Center
05:18PM 39.8003 -78.7536 288° West 443 510 20,000  Level Cleveland Center
05:19PM 39.8422 -78.9042 290° West 443 510 20,000 -120 Level Cleveland Center
05:20PM 39.8878 -79.0356 294° West 448 516 19,800 -1,200 Descending Cleveland Center
05:21PM 39.9417 -79.1806 296° West 448 516 17,700 -2,100 Descending Cleveland Center
05:22PM 40.0036 -79.3067 303° West 427 491 15,700 -2,100 Descending Cleveland Center
05:23PM 40.0656 -79.4383 302° West 427 491 13,500 -2,100 Descending Cleveland Center
05:24PM 40.1250 -79.5594 303° West 415 478 11,500 -1,800 Descending Cleveland Center
05:25PM 40.1825 -79.6836 301° West 404 465 10,000 -780 Descending Cleveland Center
05:26PM 40.2272 -79.8053 296° West 393 452 10,000  Level Cleveland Center
05:27PM 40.2822 -79.9300 300° West 386 444 10,000  Level Cleveland Center
05:28PM 40.3369 -80.0656 298° West 386 444 10,000 -360 Level Cleveland Center
05:29PM 40.3811 -80.1689 299° West 358 412 9,300 -1,200 Descending Cleveland Center
05:30PM 40.4044 -80.2642 288° West 318 366 7,600 -1,800 Descending Cleveland Center
05:31PM 40.4067 -80.3594 272° West 287 330 5,700 -1,920 Descending Cleveland Center
05:32PM 40.4214 -80.4603 281° West 287 330 3,800 -1,380 Descending Cleveland Center
05:33PM 40.4839 -80.4658 356° North 218 251 3,000 -840 Descending Cleveland Center